Fairbanks International Airport
PAFA : now visible

Airfield :











YOU CAN JOIN US ON...

 
LOGIN :

Register | Disclaimer

   EN    FR    IT 

 









Legend :    VFR   Marginal VFR   IFR   Intensive IFR   Very Intensive IFR
Visi :
Ceiling :
>= 8 km
>= 3000ft
5 to 8 km
1000 to 3000 ft
1500m to 5 km
500 to 1000 ft
800 to 1500m
200 to 500 ft
< 800m
< 200 ft
Symbols :   Thunderstorms  Fog  Heavy snow  Heavy precipitations  Wind > 20 kt






- Airport Elevation : 439 ft
- IATA code : FAI


PAFA - Fairbanks International

CURRENT METAR :
  • 251053Z 36006KT 10SM FEW050 BKN070 OVC090 M19/M24 A2988 RMK AO2 SNE48 SLP134 T11891239

EXPIRED METARs :
  • 250953Z 34003KT 7SM -SN BKN035 OVC050 M19/M23 A2987 RMK AO2 SLP131 T11891228
  • 250853Z 01006KT 4SM -SN BR BKN035 OVC050 M19/M23 A2986 RMK AO2 SLP128 T11891228 411721222 53012

TAF PAFA
Valid from the 25 at 06:00 until the 26 at 12:00 UTC


250520Z 2506/2612 01008KT P6SM -SN SCT030 BKN050 OVC080
FM251800 02003KT 6SM -SN BR BKN035 BKN050
FM260000 03004KT P6SM BKN050 BKN100



MET'MAP, your aeronautical weather chart ! - Copyright ORBIFLY December 2007 - Disclaimer

ORBIFLY MET'MAP TEAM :

Programming & Development : Alexandra Zaïnal
Concept & original design : Baudouin d'Aumeries
Assistance for programming : Marc-Olivier Méhu
Technical & hardware support : Manuel Goepfert

Contact : metmap@orbifly.com




SOURCES & CREDITS :

   NOAA       Earth
Advisory